Data for 11/22/2013

Time Sea-Level Adjusted Pressure Absolute Pressure Temperature Relative Humidity Dew Point   
(mb) (inHg) (mb) (inHg) (C) (F) (%) (C) (F)
00:05 1031 30.45 860 25.4 -13.1 8.5 79 -16 3.1
00:10 1031 30.45 860 25.4 -13.1 8.5 79 -16 3.1
00:15 1031 30.45 860 25.4 -13.4 8 79 -16.3 2.7
00:20 1031 30.45 860 25.4 -13.7 7.4 80 -16.5 2.3
00:25 1031 30.45 860 25.4 -14.1 6.6 81 -16.8 1.8
00:30 1031 30.45 860 25.4 -14.1 6.6 82 -16.6 2.1
00:35 1031 30.45 860 25.4 -13.8 7.2 80 -16.6 2.2
00:40 1031 30.45 860 25.4 -13.9 7 81 -16.6 2.2
00:45 1031 30.45 860 25.4 -13.9 6.9 82 -16.4 2.5
00:50 1031 30.45 860 25.4 -13.5 7.8 79 -16.4 2.5
00:55 1031 30.45 860 25.4 -13.7 7.3 80 -16.4 2.5
01:00 1031 30.45 860 25.4 -13.7 7.4 80 -16.4 2.5
01:05 1031 30.45 860 25.4 -13.5 7.6 80 -16.3 2.6
01:10 1031 30.45 860 25.4 -13.6 7.6 80 -16.4 2.5
01:15 1031 30.45 861 25.43 -13.4 7.8 81 -16.1 3
01:20 1031 30.45 860 25.4 -13 8.5 79 -16 3.3
01:25 1031 30.45 860 25.4 -12.9 8.7 79 -15.8 3.5
01:30 1031 30.45 860 25.4 -12.7 9.1 78 -15.8 3.5
01:35 1031 30.45 860 25.4 -12.9 8.8 78 -16 3.2
01:40 1031 30.45 860 25.4 -13.3 8.1 79 -16.3 2.7
01:45 1031 30.45 860 25.4 -13.7 7.3 82 -16.2 2.8
01:50 1031 30.45 860 25.4 -13.2 8.2 79 -16.1 3
01:55 1031 30.45 860 25.4 -12.9 8.8 78 -15.9 3.3
02:00 1031 30.45 860 25.4 -12.7 9.2 77 -15.9 3.4
02:05 1031 30.45 860 25.4 -12.6 9.4 77 -15.8 3.6
02:10 1031 30.45 860 25.4 -12.5 9.6 76 -15.8 3.6
02:15 1031 30.45 860 25.4 -12.8 9 77 -16 3.2
02:20 1031 30.45 860 25.4 -13.3 8.1 78 -16.3 2.7
02:25 1031 30.45 860 25.4 -13.5 7.6 80 -16.3 2.6
02:30 1031 30.45 860 25.4 -13.4 7.8 79 -16.3 2.7
02:35 1031 30.45 860 25.4 -13.3 8.1 79 -16.2 2.8
02:40 1031 30.45 860 25.4 -13.1 8.5 79 -16 3.2
02:45 1031 30.45 860 25.4 -13.1 8.4 78 -16.2 2.8
02:50 1031 30.45 861 25.43 -13.4 7.9 78 -16.4 2.4
02:55 1031 30.45 861 25.43 -12.8 9 79 -15.7 3.7
03:00 1032 30.47 861 25.43 -12.5 9.5 78 -15.5 4
03:05 1032 30.47 861 25.43 -12.5 9.5 78 -15.7 3.8
03:10 1032 30.47 861 25.43 -12.8 9 77 -16 3.2
03:15 1031 30.45 861 25.43 -13.4 7.8 79 -16.4 2.4
03:20 1031 30.45 861 25.43 -14.1 6.5 82 -16.6 2.1
03:25 1032 30.47 861 25.43 -14.3 6.2 81 -17 1.4
03:30 1032 30.47 861 25.43 -14.7 5.5 84 -16.9 1.7
03:35 1032 30.47 861 25.43 -14 6.9 83 -16.3 2.6
03:40 1032 30.47 861 25.43 -13.5 7.8 79 -16.4 2.4
03:45 1032 30.47 861 25.43 -13.6 7.6 79 -16.5 2.3
03:50 1032 30.47 861 25.43 -13.7 7.4 80 -16.4 2.4
03:55 1032 30.47 861 25.43 -13.7 7.3 80 -16.6 2.2
04:00 1032 30.47 861 25.43 -13.9 7 80 -16.7 2
04:05 1032 30.47 861 25.43 -13.7 7.4 79 -16.6 2.1
04:10 1032 30.47 861 25.43 -13.6 7.5 78 -16.6 2.1
04:15 1032 30.47 861 25.43 -14 6.8 79 -16.9 1.6
04:20 1032 30.47 861 25.43 -14.3 6.3 82 -16.7 1.9
04:25 1032 30.47 861 25.43 -13.7 7.4 79 -16.6 2.1
04:30 1032 30.47 861 25.43 -13 8.5 77 -16.3 2.7
04:35 1032 30.47 861 25.43 -13.2 8.3 79 -16.1 3.1
04:40 1032 30.47 861 25.43 -12.7 9.1 76 -16.1 3.1
04:45 1032 30.47 861 25.43 -12.8 8.9 77 -16.1 3.1
04:50 1032 30.47 861 25.43 -13 8.7 77 -16.1 2.9
04:55 1032 30.47 861 25.43 -13 8.7 78 -16 3.2
05:00 1032 30.47 861 25.43 -12.8 9 77 -15.9 3.3
05:05 1032 30.47 861 25.43 -13.2 8.3 78 -16.2 2.9
05:10 1032 30.47 861 25.43 -13.4 8 79 -16.3 2.6
05:15 1032 30.47 861 25.43 -13.1 8.4 77 -16.3 2.7
05:20 1032 30.47 861 25.43 -12.5 9.4 76 -15.9 3.4
05:25 1032 30.47 861 25.43 -12.7 9.2 75 -16.3 2.7
05:30 1032 30.47 861 25.43 -13.4 7.8 79 -16.4 2.5
05:35 1032 30.47 861 25.43 -13 8.5 77 -16.3 2.7
05:40 1032 30.47 861 25.43 -12.6 9.2 76 -16 3.2
05:45 1032 30.47 861 25.43 -12.8 8.9 76 -16.3 2.7
05:50 1032 30.47 861 25.43 -12.9 8.9 77 -16.1 3
05:55 1032 30.47 862 25.45 -12.6 9.3 78 -15.8 3.6
06:00 1032 30.47 862 25.45 -12.3 9.8 75 -15.9 3.4
06:05 1032 30.47 862 25.45 -12.5 9.5 75 -16 3.1
06:10 1033 30.5 862 25.45 -12.5 9.5 76 -16 3.3
06:15 1033 30.5 862 25.45 -12.9 8.8 77 -16.2 2.9
06:20 1033 30.5 862 25.45 -13.1 8.4 79 -16.1 3
06:25 1033 30.5 862 25.45 -13.3 8.1 78 -16.3 2.6
06:30 1033 30.5 862 25.45 -13.5 7.8 79 -16.4 2.5
06:35 1033 30.5 862 25.45 -13.4 7.9 78 -16.5 2.4
06:40 1033 30.5 862 25.45 -13.3 8.1 78 -16.4 2.5
06:45 1033 30.5 862 25.45 -13.5 7.8 79 -16.3 2.6
06:50 1033 30.5 862 25.45 -13.3 8 79 -16.2 2.8
06:55 1033 30.5 862 25.45 -13.3 8.1 80 -16.1 3.1
07:00 1033 30.5 862 25.45 -12.8 8.9 79 -15.8 3.6
07:05 1033 30.5 862 25.45 -12.3 9.9 77 -15.5 4.2
07:10 1033 30.5 862 25.45 -12.4 9.6 78 -15.6 4
07:15 1033 30.5 862 25.45 -12.8 9 80 -15.6 3.9
07:20 1033 30.5 862 25.45 -12.6 9.3 81 -15.2 4.7
07:25 1033 30.5 862 25.45 -12.1 10.3 75 -15.6 4
07:30 1032 30.47 862 25.45 -12.8 9 81 -15.4 4.3
07:35 1032 30.47 862 25.45 -12.5 9.5 77 -15.7 3.7
07:40 1032 30.47 862 25.45 -12.5 9.4 76 -15.9 3.4
07:45 1033 30.5 862 25.45 -13 8.7 78 -16 3.1
07:50 1033 30.5 862 25.45 -13 8.6 78 -16.1 3.1
07:55 1032 30.47 862 25.45 -12.8 8.9 79 -15.8 3.5
08:00 1033 30.5 862 25.45 -12.5 9.5 77 -15.7 3.7
08:05 1033 30.5 862 25.45 -12.6 9.2 77 -15.8 3.5
08:10 1033 30.5 862 25.45 -12.8 8.9 78 -16 3.3
08:15 1033 30.5 862 25.45 -12.6 9.3 76 -16 3.1
08:20 1033 30.5 862 25.45 -12.5 9.4 77 -15.9 3.5
08:25 1033 30.5 862 25.45 -12.5 9.4 77 -15.7 3.7
08:30 1033 30.5 862 25.45 -12.2 10 77 -15.5 4.2
08:35 1033 30.5 862 25.45 -12.2 10.1 78 -15.2 4.6
08:40 1033 30.5 862 25.45 -12.1 10.3 78 -15.2 4.6
08:45 1033 30.5 862 25.45 -12.1 10.3 76 -15.4 4.3
08:50 1033 30.5 862 25.45 -12.1 10.3 75 -15.6 3.9
08:55 1033 30.5 862 25.45 -11.2 11.8 73 -15.1 4.9
09:00 1033 30.5 862 25.45 -10.7 12.8 72 -14.8 5.3
09:05 1033 30.5 862 25.45 -10.4 13.3 72 -14.6 5.7
09:10 1033 30.5 862 25.45 -10.3 13.4 70 -14.7 5.5
09:15 1033 30.5 862 25.45 -10.4 13.3 71 -14.7 5.6
09:20 1033 30.5 862 25.45 -9.9 14.2 69 -14.5 5.9
09:25 1033 30.5 862 25.45 -9.6 14.7 69 -14.4 6.2
09:30 1033 30.5 862 25.45 -9.5 15 68 -14.3 6.2
09:35 1033 30.5 862 25.45 -9.2 15.4 69 -14 6.8
09:40 1033 30.5 862 25.45 -9 15.8 67 -14.2 6.5
09:45 1033 30.5 862 25.45 -9.2 15.4 68 -14.1 6.6
09:50 1033 30.5 862 25.45 -9.1 15.5 69 -13.8 7.1
09:55 1033 30.5 862 25.45 -8.5 16.7 66 -13.8 7.2
10:00 1033 30.5 862 25.45 -9.1 15.6 68 -14 6.7
10:05 1033 30.5 863 25.48 -9.2 15.5 69 -13.9 7.1
10:10 1033 30.5 863 25.48 -8.7 16.4 68 -13.5 7.8
10:15 1033 30.5 863 25.48 -8.1 17.5 66 -13.4 8
10:20 1033 30.5 863 25.48 -7.9 17.7 66 -13.2 8.3
10:25 1033 30.5 863 25.48 -7.5 18.4 65 -13 8.6
10:30 1033 30.5 863 25.48 -7.3 18.9 64 -13 8.6
10:35 1033 30.5 863 25.48 -7.6 18.4 67 -12.6 9.2
10:40 1033 30.5 863 25.48 -7.3 18.8 67 -12.5 9.5
10:45 1033 30.5 863 25.48 -7 19.4 64 -12.6 9.2
10:50 1033 30.5 863 25.48 -6.7 19.9 66 -12.1 10.2
10:55 1033 30.5 863 25.48 -6.9 19.5 67 -12.1 10.2
11:00 1033 30.5 863 25.48 -6.8 19.7 64 -12.6 9.3
11:05 1033 30.5 863 25.48 -6.8 19.8 63 -12.7 9.1
11:10 1033 30.5 863 25.48 -6.2 20.9 62 -12.3 9.9
11:15 1033 30.5 863 25.48 -5.6 21.8 61 -12 10.3
11:20 1033 30.5 863 25.48 -5.5 22.1 58 -12.4 9.6
11:25 1033 30.5 863 25.48 -5.6 22 61 -11.9 10.6
11:30 1033 30.5 863 25.48 -5.7 21.8 62 -11.9 10.5
11:35 1033 30.5 863 25.48 -5.6 21.9 61 -12.1 10.3
11:40 1033 30.5 863 25.48 -5.1 22.9 61 -11.5 11.2
11:45 1033 30.5 863 25.48 -4.7 23.6 58 -11.6 11
11:50 1033 30.5 863 25.48 -4.5 24 58 -11.5 11.2
11:55 1033 30.5 863 25.48 -4.5 23.9 59 -11.4 11.4
12:00 1033 30.5 863 25.48 -4.1 24.6 58 -11.2 11.8
12:05 1034 30.53 863 25.48 -4.1 24.7 56 -11.7 10.9
12:10 1034 30.53 863 25.48 -4.5 23.9 58 -11.5 11.4
12:15 1033 30.5 863 25.48 -5.3 22.5 62 -11.5 11.2
12:20 1033 30.5 863 25.48 -5.4 22.3 62 -11.6 11.1
12:25 1033 30.5 863 25.48 -5.4 22.3 63 -11.4 11.4
12:30 1033 30.5 863 25.48 -5 22.9 62 -11.2 11.8
12:35 1033 30.5 863 25.48 -4.5 23.9 61 -10.9 12.3
12:40 1033 30.5 862 25.45 -4.4 24.1 61 -10.8 12.5
12:45 1033 30.5 862 25.45 -3.8 25.2 57 -11.1 11.9
12:50 1033 30.5 862 25.45 -3.9 25 58 -10.9 12.4
12:55 1033 30.5 862 25.45 -4.1 24.6 58 -11.3 11.7
13:00 1033 30.5 862 25.45 -4.2 24.4 54 -12.1 10.1
13:05 1033 30.5 862 25.45 -4.3 24.3 56 -11.8 10.7
13:10 1033 30.5 862 25.45 -4.7 23.5 58 -11.7 11
13:15 1033 30.5 862 25.45 -4.4 24.2 57 -11.7 11
13:20 1033 30.5 862 25.45 -4.1 24.6 56 -11.7 11
13:25 1033 30.5 862 25.45 -4.1 24.7 58 -11.2 11.9
13:30 1033 30.5 862 25.45 -4.1 24.6 57 -11.5 11.3
13:35 1033 30.5 862 25.45 -3.8 25.2 55 -11.5 11.2
13:40 1033 30.5 862 25.45 -3.9 25 53 -12.1 10.3
13:45 1033 30.5 862 25.45 -4 24.7 55 -11.9 10.7
13:50 1033 30.5 862 25.45 -4.3 24.3 54 -12.3 9.8
13:55 1033 30.5 862 25.45 -4.2 24.5 52 -12.7 9.1
14:00 1033 30.5 862 25.45 -3.8 25.2 50 -12.8 8.9
14:05 1033 30.5 862 25.45 -4.1 24.6 51 -12.9 8.8
14:10 1033 30.5 862 25.45 -4 24.8 50 -13 8.6
14:15 1033 30.5 862 25.45 -3.9 25 53 -12.2 10.1
14:20 1033 30.5 862 25.45 -4 24.9 54 -11.9 10.6
14:25 1033 30.5 862 25.45 -4.3 24.3 54 -12.2 10
14:30 1032 30.47 862 25.45 -3.9 25 52 -12.3 9.8
14:35 1032 30.47 862 25.45 -3.5 25.7 55 -11.3 11.6
14:40 1032 30.47 862 25.45 -3 26.6 52 -11.5 11.4
14:45 1032 30.47 862 25.45 -3.2 26.2 51 -11.9 10.6
14:50 1032 30.47 862 25.45 -3.3 26.1 53 -11.6 11
14:55 1032 30.47 862 25.45 -3 26.6 48 -12.6 9.3
15:00 1032 30.47 862 25.45 -3.2 26.2 48 -12.6 9.3
15:05 1032 30.47 862 25.45 -3 26.6 48 -12.6 9.3
15:10 1032 30.47 861 25.43 -3.5 25.8 48 -12.9 8.7
15:15 1032 30.47 862 25.45 -3.4 25.9 46 -13.5 7.6
15:20 1032 30.47 861 25.43 -2.8 26.9 48 -12.5 9.5
15:25 1032 30.47 862 25.45 -3.2 26.2 47 -13 8.6
15:30 1032 30.47 862 25.45 -3.5 25.8 44 -13.9 6.9
15:35 1032 30.47 862 25.45 -3.3 26 46 -13.3 8.1
15:40 1032 30.47 862 25.45 -3.6 25.5 49 -12.9 8.8
15:45 1032 30.47 862 25.45 -3.4 25.9 49 -12.8 9
15:50 1032 30.47 862 25.45 -3.3 26.1 50 -12.4 9.7
15:55 1032 30.47 862 25.45 -2.9 26.8 49 -12.2 10.1
16:00 1032 30.47 862 25.45 -2.9 26.8 49 -12.2 10
16:05 1032 30.47 862 25.45 -3.1 26.4 49 -12.4 9.6
16:10 1033 30.5 862 25.45 -3.1 26.4 51 -11.8 10.7
16:15 1033 30.5 862 25.45 -3.5 25.6 53 -11.8 10.8
16:20 1033 30.5 862 25.45 -3.3 26.1 50 -12.3 9.9
16:25 1033 30.5 862 25.45 -2.9 26.7 50 -11.9 10.5
16:30 1033 30.5 862 25.45 -2.8 26.9 50 -11.9 10.6
16:35 1033 30.5 862 25.45 -2.9 26.8 49 -12.2 10
16:40 1033 30.5 862 25.45 -3.4 25.8 51 -12.1 10.2
16:45 1033 30.5 862 25.45 -3.6 25.6 53 -11.9 10.6
16:50 1033 30.5 862 25.45 -3.7 25.3 51 -12.4 9.7
16:55 1033 30.5 862 25.45 -3.6 25.5 50 -12.7 9.1
17:00 1033 30.5 862 25.45 -3.4 25.9 50 -12.3 9.8
17:05 1033 30.5 862 25.45 -3.5 25.6 53 -11.8 10.8
17:10 1033 30.5 862 25.45 -3.7 25.3 51 -12.4 9.7
17:15 1033 30.5 862 25.45 -3.9 25 55 -11.8 10.8
17:20 1033 30.5 862 25.45 -3.6 25.5 52 -12 10.4
17:25 1033 30.5 862 25.45 -3.4 25.9 55 -11.2 11.8
17:30 1033 30.5 862 25.45 -3.6 25.5 55 -11.4 11.5
17:35 1033 30.5 862 25.45 -4.3 24.3 55 -12 10.5
17:40 1032 30.47 862 25.45 -5 23.1 62 -11.1 12.1
17:45 1032 30.47 862 25.45 -5.5 22.1 64 -11.3 11.6
17:50 1032 30.47 862 25.45 -5.8 21.6 68 -10.8 12.5
17:55 1032 30.47 862 25.45 -6 21.2 73 -10.1 13.7
18:00 1032 30.47 861 25.43 -6.3 20.6 75 -10.1 13.9
18:05 1032 30.47 862 25.45 -6.4 20.4 73 -10.5 13.1
18:10 1032 30.47 861 25.43 -6.4 20.5 73 -10.5 13.1
18:15 1032 30.47 861 25.43 -6.4 20.6 72 -10.6 12.9
18:20 1032 30.47 862 25.45 -6.3 20.6 73 -10.4 13.2
18:25 1032 30.47 862 25.45 -6.5 20.3 73 -10.6 12.8
18:30 1032 30.47 862 25.45 -6.4 20.4 72 -10.6 12.9
18:35 1032 30.47 862 25.45 -6.6 20.1 72 -10.8 12.6
18:40 1032 30.47 862 25.45 -6.7 20 74 -10.6 12.9
18:45 1032 30.47 862 25.45 -6.6 20.1 75 -10.4 13.3
18:50 1033 30.5 862 25.45 -6.6 20.1 75 -10.4 13.4
18:55 1033 30.5 862 25.45 -6.6 20.1 75 -10.3 13.5
19:00 1033 30.5 862 25.45 -6.6 20 76 -10.2 13.6
19:05 1033 30.5 862 25.45 -6.6 20.2 75 -10.3 13.5
19:10 1033 30.5 862 25.45 -6.5 20.4 75 -10.2 13.6
19:15 1033 30.5 862 25.45 -6.8 19.8 77 -10.2 13.6
19:20 1033 30.5 862 25.45 -7.3 18.9 79 -10.3 13.4
19:25 1033 30.5 862 25.45 -7.5 18.6 80 -10.4 13.3
19:30 1033 30.5 862 25.45 -7.4 18.6 79 -10.4 13.2
19:35 1033 30.5 862 25.45 -7.3 18.8 79 -10.4 13.4
19:40 1033 30.5 862 25.45 -7.3 18.9 78 -10.4 13.2
19:45 1033 30.5 862 25.45 -7.2 19 78 -10.3 13.4
19:50 1033 30.5 862 25.45 -7.3 18.8 80 -10.1 13.8
19:55 1033 30.5 862 25.45 -7.3 18.8 80 -10.2 13.6
20:00 1033 30.5 862 25.45 -7.2 19 78 -10.3 13.4
20:05 1033 30.5 862 25.45 -7.4 18.7 78 -10.6 13
20:10 1033 30.5 862 25.45 -7.7 18.1 77 -11 12.2
20:15 1033 30.5 862 25.45 -7.8 18 79 -10.8 12.5
20:20 1033 30.5 862 25.45 -8.3 17.1 84 -10.6 13
20:25 1033 30.5 862 25.45 -7.8 18.1 81 -10.4 13.2
20:30 1033 30.5 862 25.45 -7.1 19.3 78 -10.2 13.6
20:35 1033 30.5 862 25.45 -7.1 19.3 78 -10.3 13.5
20:40 1033 30.5 862 25.45 -7.3 18.8 79 -10.3 13.4
20:45 1033 30.5 862 25.45 -7.3 18.8 78 -10.5 13
20:50 1033 30.5 862 25.45 -7.7 18.1 79 -10.7 12.7
20:55 1033 30.5 862 25.45 -8 17.6 80 -10.9 12.4
21:00 1033 30.5 862 25.45 -8.1 17.5 80 -10.9 12.3
21:05 1033 30.5 862 25.45 -8.1 17.3 80 -11 12.1
21:10 1033 30.5 862 25.45 -8.3 17 81 -11 12.2
21:15 1033 30.5 862 25.45 -8.2 17.3 80 -11 12.2
21:20 1033 30.5 862 25.45 -8.1 17.5 79 -11.1 12
21:25 1033 30.5 862 25.45 -7.9 17.8 79 -10.9 12.3
21:30 1033 30.5 862 25.45 -7.9 17.7 78 -11.1 12
21:35 1033 30.5 862 25.45 -8.1 17.4 79 -11.1 12
21:40 1033 30.5 862 25.45 -8.1 17.3 79 -11.2 11.9
21:45 1033 30.5 862 25.45 -8.3 17.1 80 -11.2 11.9
21:50 1033 30.5 862 25.45 -7.9 17.8 78 -11.2 11.9
21:55 1033 30.5 862 25.45 -7.6 18.2 78 -10.9 12.4
22:00 1033 30.5 862 25.45 -7.5 18.5 77 -10.9 12.4
22:05 1033 30.5 862 25.45 -7.3 18.8 76 -10.8 12.6
22:10 1033 30.5 862 25.45 -7.3 18.9 75 -11 12.2
22:15 1033 30.5 862 25.45 -7.3 18.9 74 -11.2 11.8
22:20 1033 30.5 862 25.45 -7.1 19.1 74 -11 12.1
22:25 1033 30.5 862 25.45 -7 19.3 73 -11 12.1
22:30 1033 30.5 862 25.45 -7.1 19.3 74 -11 12.2
22:35 1033 30.5 862 25.45 -6.9 19.5 74 -10.9 12.5
22:40 1033 30.5 862 25.45 -7.2 19 75 -10.9 12.4
22:45 1033 30.5 862 25.45 -7 19.4 74 -11 12.2
22:50 1033 30.5 862 25.45 -7.3 19 75 -11 12.2
22:55 1033 30.5 862 25.45 -7.6 18.3 77 -11 12.2
23:00 1033 30.5 862 25.45 -7.9 17.7 77 -11.3 11.7
23:05 1033 30.5 862 25.45 -7.5 18.6 76 -11.1 12.1
23:10 1033 30.5 862 25.45 -7.1 19.2 74 -11 12.2
23:15 1033 30.5 862 25.45 -7 19.3 74 -10.9 12.3
23:20 1033 30.5 862 25.45 -8 17.6 78 -11.2 11.9
23:25 1033 30.5 862 25.45 -8.1 17.4 77 -11.5 11.3
23:30 1033 30.5 862 25.45 -8.4 16.9 79 -11.4 11.5
23:35 1033 30.5 863 25.48 -8.8 16.1 81 -11.5 11.3
23:40 1033 30.5 862 25.45 -8.6 16.5 80 -11.5 11.3
23:45 1033 30.5 862 25.45 -8.1 17.4 77 -11.4 11.4
23:50 1033 30.5 862 25.45 -7.7 18.1 77 -11 12.1
23:55 1033 30.5 862 25.45 -7.9 17.9 78 -11.1 12
24:00 1033 30.5 862 25.45 -8.4 17 79 -11.4 11.6